ADDS METAR Data INFO
IDs: Format: Raw Decoded Include TAF

Data at: 2052 UTC 26 May 2017

KRWL 262041Z AUTO 34011KT 5SM -TSRA BKN050 OVC070 08/03 A2987 RMK AO2 PK WND 32055/2019 WSHFT 2021 LTG DSNT ALQDS RAB20 TSB17 P0009 T00780033
KRWL 262023Z AUTO 35020G55KT 10SM -TSRA SCT060 BKN070 OVC095 11/05 A2985 RMK AO2 PK WND 32055/2019 WSHFT 1943 LTG DSNT ALQDS RAB20 TSB17 PRESRR P0000 T01060050
KRWL 262003Z AUTO 14009G19KT 10SM VCTS BKN075 BKN100 OVC120 14/04 A2981 RMK AO2 WSHFT 1943 LTG DSNT ALQDS T01390039
KRWL 261953Z AUTO 07012KT 10SM VCTS FEW055 SCT080 BKN095 13/04 A2980 RMK AO2 LTG DSNT W-N TSB20E35 SLP037 T01330044
KRWL 261951Z AUTO 06011G21KT 10SM VCTS FEW055 SCT080 BKN095 13/04 A2980 RMK AO2 LTG DSNT W-N TSB20E35 PRESFR
KRWL 261941Z AUTO 03010G20KT 10SM FEW050 SCT065 BKN075 14/04 A2982 RMK AO2 LTG DSNT SE AND W AND NW TSB20E35 T01390044
KRWL 261926Z AUTO 03012KT 10SM TS SCT060 BKN070 OVC090 14/04 A2984 RMK AO2 LTG DSNT SE AND W TSB20 T01440039
KRWL 261853Z AUTO 05008KT 10SM FEW080 SCT090 BKN110 14/04 A2986 RMK AO2 SLP054 T01390039
KRWL 261753Z AUTO 07010KT 10SM FEW100 13/04 A2990 RMK AO2 SLP072 60001 T01280039 10128 20011 58008
KRWL 261653Z AUTO 05013KT 10SM FEW110 09/04 A2991 RMK AO2 LTG DSNT N RAE05 SLP082 P0000 T00940039
KRWL 261553Z AUTO 06009KT 10SM -RA FEW022 BKN045 OVC070 06/03 A2994 RMK AO2 RAB14 SLP100 P0001 T00560033
KRWL 261453Z AUTO 02007KT 10SM BKN047 06/02 A2993 RMK AO2 LTG DSNT SW RAB25E39 SLP089 P0000 60000 T00610022 56004
KRWL 261429Z AUTO 02008KT 10SM -RA BKN046 BKN060 OVC080 06/02 A2994 RMK AO2 RAB25 P0000 T00610017
KRWL 261414Z AUTO 34007KT 10SM VCTS BKN060 OVC080 06/02 A2994 RMK AO2 T00560017 $
KRWL 261353Z AUTO 06006KT 10SM SCT055 OVC090 05/02 A2993 RMK AO2 SLP087 T00500017 $
KRWL 261253Z AUTO 08007KT 10SM CLR 04/02 A2993 RMK AO2 SLP090 T00390017 $
KRWL 261153Z AUTO 03005KT 10SM CLR 01/00 A2994 RMK AO2 SLP097 70004 T00110000 10061 20000 $
KRWL 261053Z AUTO 00000KT 10SM CLR 01/M01 A2994 RMK AO2 SLP092 T00061011 $
KRWL 260953Z AUTO 34006KT 01/M01 A2994 RMK AO2 SLP098 T00111011 $
KRWL 260853Z AUTO 36005KT 10SM CLR 02/M01 A2994 RMK AO2 SLP089 T00221006 51012
KRWL 260753Z AUTO 04008G16KT 10SM CLR 05/00 A2994 RMK AO2 SLP080 T00500000
KRWL 260653Z AUTO 03010KT 10SM CLR 06/M01 A2992 RMK AO2 SLP081 T00561006 401670050
KRWL 260553Z AUTO 04007KT 10SM CLR 06/M01 A2990 RMK AO2 SLP077 T00611011 10144 20056 51021
KRWL 260453Z AUTO 02011KT 10SM CLR 07/M02 A2989 RMK AO2 SLP085 T00721017
KRWL 260353Z AUTO 03009KT 10SM CLR 08/M02 A2987 RMK AO2 SLP067 T00831017
KRWL 260253Z AUTO VRB03KT 10SM FEW070 SCT090 BKN110 11/M03 A2982 RMK AO2 SLP044 T01061033 51014
KRWL 260153Z AUTO 26008KT 10SM BKN085 OVC110 12/M03 A2981 RMK AO2 SLP038 T01221033
KRWL 260053Z AUTO VRB05KT 10SM SCT050 OVC075 12/M03 A2979 RMK AO2 PK WND 24030/0021 SLP034 T01221028
KRWL 252353Z AUTO 27011KT 10SM OVC090 14/M03 A2977 RMK AO2 SLP018 T01441033 10167 20100 53009
KRWL 252253Z AUTO 26015G22KT 10SM BKN085 BKN110 16/M04 A2975 RMK AO2 PK WND 27026/2211 SLP002 T01561039
KRWL 252153Z AUTO 27018G23KT 10SM BKN080 OVC095 14/M03 A2974 RMK AO2 PK WND 27026/2057 SLP001 T01441028
KRWL 252053Z AUTO 26017G22KT 10SM FEW065 SCT100 SCT110 16/M01 A2974 RMK AO2 PK WND 26027/2002 SLP998 T01561011 55002
KRWL 251953Z AUTO 25019G26KT 10SM FEW037 SCT044 SCT055 16/01 A2973 RMK AO2 PK WND 24026/1923 SLP993 T01560011
KRWL 251853Z AUTO 23018G24KT 10SM CLR 13/03 A2974 RMK AO2 SLP998 T01280033
KRWL 251753Z AUTO 22015G23KT 10SM FEW085 10/04 A2975 RMK AO2 RAE01 SLP009 P0000 60004 T01000039 10106 20050 51006
KRWL 251653Z AUTO 23013KT 10SM -RA SCT044 BKN055 OVC080 06/03 A2974 RMK AO2 PK WND 23031/1612 RAB13 SLP016 P0003 T00610033
KRWL 251635Z AUTO 22016KT 10SM -RA BKN036 BKN055 OVC070 06/03 A2974 RMK AO2 PK WND 23031/1612 RAB13 P0003 T00560028
KRWL 251628Z AUTO 23016G24KT 2 1/2SM -RA BKN034 BKN045 OVC050 05/02 A2974 RMK AO2 PK WND 23031/1612 RAB13 P0002 T00500022
KRWL 251553Z AUTO 24015G21KT 10SM OVC055 08/01 A2974 RMK AO2 RAB30E41 SLP006 P0000 T00830011
KRWL 251453Z AUTO 24017G23KT 10SM BKN048 OVC065 08/02 A2972 RMK AO2 SLP999 60001 T00780017 50009
KRWL 251353Z AUTO 23012KT 10SM OVC039 07/02 A2973 RMK AO2 PK WND 26027/1319 RAE34 SLP989 P0000 T00670017 $
KRWL 251253Z AUTO 26015G28KT 10SM -RA OVC041 07/02 A2972 RMK AO2 PK WND 27028/1250 RAB44 SLP984 P0001 T00670017 $
KRWL 251153Z AUTO 29013KT 10SM OVC039 08/03 A2969 RMK AO2 SLP968 60003 70003 T00780033 10133 20078 $
KRWL 251053Z AUTO 25008KT 10SM SCT110 09/06 A2965 RMK AO2 SLP950 T00940061
KRWL 250953Z AUTO 19004KT 10SM OVC065 09/07 A2965 RMK AO2 SLP944 T00940067
KRWL 250853Z AUTO 21007KT 10SM BKN060 BKN070 OVC100 09/07 A2965 RMK AO2 RAE47 SLP949 P0003 60003 T00890067 58003


Page loaded:  20:52 UTC  |   01:52 PM Pacific  |   02:52 PM Mountain  |   03:52 PM Central  |   04:52 PM Eastern

 

ADVISORIES

FORECASTS

FORECASTS

OBSERVATIONS

USER TOOLS

ABOUT US